createdAt,value
2015-10-21T00:00:05.182Z,733.93
2015-10-21T00:00:18.385Z,733.89
2015-10-21T00:00:31.604Z,733.86
2015-10-21T00:00:44.826Z,733.86
2015-10-21T00:00:58.060Z,733.87
2015-10-21T00:01:11.279Z,733.88
2015-10-21T00:01:24.482Z,733.81
2015-10-21T00:01:37.685Z,733.85
2015-10-21T00:01:50.923Z,733.84
2015-10-21T00:02:04.110Z,733.86
2015-10-21T00:02:17.313Z,733.88
2015-10-21T00:02:30.516Z,733.86
2015-10-21T00:02:43.751Z,733.87
2015-10-21T00:02:56.956Z,733.87
2015-10-21T00:03:10.159Z,733.89
2015-10-21T00:03:23.362Z,733.92
2015-10-21T00:03:36.581Z,733.91
2015-10-21T00:03:49.818Z,733.89
2015-10-21T00:04:03.021Z,733.84
2015-10-21T00:04:16.225Z,733.81
2015-10-21T00:04:29.443Z,733.85
2015-10-21T00:04:42.646Z,733.84
2015-10-21T00:04:55.853Z,733.87
2015-10-21T00:05:09.056Z,733.84
2015-10-21T00:05:22.274Z,733.87
2015-10-21T00:05:35.493Z,733.9
2015-10-21T00:05:48.698Z,733.81
2015-10-21T00:06:01.886Z,733.85
2015-10-21T00:06:15.105Z,733.86
2015-10-21T00:06:28.323Z,733.86
2015-10-21T00:06:41.526Z,733.81
2015-10-21T00:06:54.734Z,733.77
2015-10-21T00:07:07.937Z,733.82
2015-10-21T00:07:20.999Z,733.81
2015-10-21T00:07:34.202Z,733.81
2015-10-21T00:07:47.405Z,733.82
2015-10-21T00:08:00.611Z,733.82
2015-10-21T00:08:13.829Z,733.86
2015-10-21T00:08:27.048Z,733.8
2015-10-21T00:08:40.251Z,733.82
2015-10-21T00:08:53.457Z,733.79
2015-10-21T00:09:06.660Z,733.82
2015-10-21T00:09:19.895Z,733.84
2015-10-21T00:09:33.098Z,733.86
2015-10-21T00:09:46.317Z,733.85
2015-10-21T00:09:59.507Z,733.87
2015-10-21T00:10:12.726Z,733.86
2015-10-21T00:10:25.929Z,733.87
2015-10-21T00:10:39.132Z,733.89
2015-10-21T00:10:52.337Z,733.88
2015-10-21T00:11:05.556Z,733.86
2015-10-21T00:11:18.775Z,733.86
2015-10-21T00:11:31.978Z,733.85
2015-10-21T00:11:45.181Z,733.83
2015-10-21T00:11:58.387Z,733.87
2015-10-21T00:12:11.606Z,733.86
2015-10-21T00:12:24.809Z,733.85
2015-10-21T00:12:38.012Z,733.84
2015-10-21T00:12:51.200Z,733.85
2015-10-21T00:13:04.421Z,733.86
2015-10-21T00:13:17.625Z,733.84
2015-10-21T00:13:30.828Z,733.84
2015-10-21T00:13:44.031Z,733.87
2015-10-21T00:13:57.253Z,733.81
2015-10-21T00:14:10.456Z,733.8
2015-10-21T00:14:23.674Z,733.83
2015-10-21T00:14:36.878Z,733.83
2015-10-21T00:14:50.096Z,733.81
2015-10-21T00:15:03.317Z,733.81
2015-10-21T00:15:16.520Z,733.82
2015-10-21T00:15:29.723Z,733.84
2015-10-21T00:15:42.926Z,733.82
2015-10-21T00:15:56.179Z,733.83
2015-10-21T00:16:09.367Z,733.84
2015-10-21T00:16:22.570Z,733.86
2015-10-21T00:16:35.773Z,733.87
2015-10-21T00:16:49.008Z,733.83
2015-10-21T00:17:02.213Z,733.86
2015-10-21T00:17:15.416Z,733.87
2015-10-21T00:17:28.619Z,733.87
2015-10-21T00:17:41.838Z,733.82
2015-10-21T00:17:55.056Z,733.8
2015-10-21T00:18:08.248Z,733.85
2015-10-21T00:18:21.451Z,733.87
2015-10-21T00:18:34.670Z,733.9
2015-10-21T00:18:47.889Z,733.88
2015-10-21T00:19:01.109Z,733.9
2015-10-21T00:19:14.312Z,733.89
2015-10-21T00:19:27.531Z,733.91
2015-10-21T00:19:40.750Z,733.86
2015-10-21T00:19:53.953Z,733.84
2015-10-21T00:20:07.144Z,733.87
2015-10-21T00:20:20.362Z,733.85
2015-10-21T00:20:33.565Z,733.86
2015-10-21T00:20:46.784Z,733.88
2015-10-21T00:20:59.989Z,733.85
2015-10-21T00:21:13.192Z,733.85
2015-10-21T00:21:26.396Z,733.84
2015-10-21T00:21:39.599Z,733.89
2015-10-21T00:21:52.802Z,733.86
2015-10-21T00:22:06.008Z,733.9
2015-10-21T00:22:19.211Z,733.86
2015-10-21T00:22:32.430Z,733.9
2015-10-21T00:22:45.664Z,733.88
2015-10-21T00:22:58.852Z,733.9
2015-10-21T00:23:12.058Z,733.87
2015-10-21T00:23:25.292Z,733.89
2015-10-21T00:23:38.495Z,733.92
2015-10-21T00:23:51.745Z,733.86
2015-10-21T00:24:04.951Z,733.89
2015-10-21T00:24:18.170Z,733.86
2015-10-21T00:24:31.373Z,733.89
2015-10-21T00:24:44.576Z,733.85
2015-10-21T00:24:57.795Z,733.88
2015-10-21T00:25:11.032Z,733.87
2015-10-21T00:25:24.235Z,733.85
2015-10-21T00:25:37.438Z,733.87
2015-10-21T00:25:50.641Z,733.87
2015-10-21T00:26:03.863Z,733.85
2015-10-21T00:26:17.081Z,733.83
2015-10-21T00:26:30.285Z,733.87
2015-10-21T00:26:43.488Z,733.84
2015-10-21T00:26:56.691Z,733.87
2015-10-21T00:27:09.928Z,733.87
2015-10-21T00:27:23.147Z,733.87
2015-10-21T00:27:36.350Z,733.89
2015-10-21T00:27:49.553Z,733.88
2015-10-21T00:28:02.790Z,733.88
2015-10-21T00:28:15.993Z,733.89
2015-10-21T00:28:29.196Z,733.9
2015-10-21T00:28:42.383Z,733.91
2015-10-21T00:28:55.633Z,733.92
2015-10-21T00:29:08.839Z,733.93
2015-10-21T00:29:22.043Z,733.91
2015-10-21T00:29:35.246Z,733.95
2015-10-21T00:29:48.449Z,733.88
2015-10-21T00:30:01.668Z,733.81
2015-10-21T00:30:14.874Z,733.86
2015-10-21T00:30:28.077Z,733.84
2015-10-21T00:30:41.280Z,733.85
2015-10-21T00:30:54.514Z,733.81
2015-10-21T00:31:07.736Z,733.85
2015-10-21T00:31:20.939Z,733.88
2015-10-21T00:31:34.142Z,733.85
2015-10-21T00:31:47.377Z,733.86
2015-10-21T00:32:00.580Z,733.85
2015-10-21T00:32:13.769Z,733.88
2015-10-21T00:32:26.957Z,733.86
2015-10-21T00:32:40.160Z,733.89
2015-10-21T00:32:53.363Z,733.9
2015-10-21T00:33:06.538Z,733.85
2015-10-21T00:33:19.741Z,733.88
2015-10-21T00:33:32.944Z,733.9
2015-10-21T00:33:46.179Z,733.91
2015-10-21T00:33:59.366Z,733.88
2015-10-21T00:34:12.572Z,733.84
2015-10-21T00:34:25.775Z,733.86
2015-10-21T00:34:38.994Z,733.9
2015-10-21T00:34:52.197Z,733.87
2015-10-21T00:35:05.385Z,733.89
2015-10-21T00:35:18.606Z,733.92
2015-10-21T00:35:31.841Z,733.85
2015-10-21T00:35:45.044Z,733.87
2015-10-21T00:35:58.247Z,733.91
2015-10-21T00:36:11.453Z,733.91
2015-10-21T00:36:24.688Z,733.89
2015-10-21T00:36:37.906Z,733.92
2015-10-21T00:36:51.094Z,733.94
2015-10-21T00:37:04.313Z,733.93
2015-10-21T00:37:17.533Z,733.91
2015-10-21T00:37:30.736Z,733.94
2015-10-21T00:37:43.940Z,733.95
2015-10-21T00:37:57.143Z,733.94
2015-10-21T00:38:10.349Z,733.97
2015-10-21T00:38:23.568Z,733.95
2015-10-21T00:38:36.771Z,734.02
2015-10-21T00:38:49.974Z,733.98
2015-10-21T00:39:03.177Z,734
2015-10-21T00:39:16.398Z,734
2015-10-21T00:39:29.601Z,734
2015-10-21T00:39:42.788Z,733.96
2015-10-21T00:39:55.991Z,733.95
2015-10-21T00:40:09.210Z,733.95
2015-10-21T00:40:22.416Z,733.95
2015-10-21T00:40:35.619Z,733.93
2015-10-21T00:40:48.807Z,733.94
2015-10-21T00:41:02.026Z,733.94
2015-10-21T00:41:15.247Z,733.94
2015-10-21T00:41:28.451Z,733.94
2015-10-21T00:41:41.654Z,733.97
2015-10-21T00:41:54.841Z,733.98
2015-10-21T00:42:08.060Z,733.98
2015-10-21T00:42:21.282Z,733.99
2015-10-21T00:42:34.469Z,733.99
2015-10-21T00:42:47.672Z,733.99
2015-10-21T00:43:00.891Z,734.03
2015-10-21T00:43:14.096Z,734
2015-10-21T00:43:27.299Z,733.96
2015-10-21T00:43:40.502Z,734.01
2015-10-21T00:43:53.721Z,733.99
2015-10-21T00:44:06.940Z,733.97
2015-10-21T00:44:20.146Z,733.9
2015-10-21T00:44:33.349Z,733.88
2015-10-21T00:44:46.552Z,733.9
2015-10-21T00:44:59.787Z,733.93
2015-10-21T00:45:12.990Z,733.93
2015-10-21T00:45:26.179Z,733.93
2015-10-21T00:45:39.382Z,733.92
2015-10-21T00:45:52.617Z,733.93
2015-10-21T00:46:05.820Z,733.9
2015-10-21T00:46:19.026Z,733.96
2015-10-21T00:46:32.229Z,733.93
2015-10-21T00:46:45.448Z,733.92
2015-10-21T00:46:58.667Z,733.95
2015-10-21T00:47:11.870Z,733.96
2015-10-21T00:47:25.076Z,733.94
2015-10-21T00:47:38.279Z,734
2015-10-21T00:47:51.513Z,733.95
2015-10-21T00:48:04.701Z,733.97
2015-10-21T00:48:17.907Z,733.96
2015-10-21T00:48:31.110Z,733.97
2015-10-21T00:48:44.173Z,734.03
2015-10-21T00:48:57.376Z,733.99
2015-10-21T00:49:10.579Z,733.96
2015-10-21T00:49:23.785Z,733.97
2015-10-21T00:49:37.004Z,733.98
2015-10-21T00:49:50.223Z,733.99
2015-10-21T00:50:03.410Z,733.9
2015-10-21T00:50:16.613Z,733.99
2015-10-21T00:50:29.818Z,733.95
2015-10-21T00:50:43.053Z,733.91
2015-10-21T00:50:56.256Z,734.01
2015-10-21T00:51:09.459Z,734
2015-10-21T00:51:22.665Z,734.08
2015-10-21T00:51:35.899Z,734.01
2015-10-21T00:51:49.103Z,734.06
2015-10-21T00:52:02.290Z,734.06
2015-10-21T00:52:15.493Z,734.03
2015-10-21T00:52:28.714Z,734
2015-10-21T00:52:41.917Z,734.03
2015-10-21T00:52:55.120Z,734.04
2015-10-21T00:53:08.323Z,734.03
2015-10-21T00:53:21.546Z,734
2015-10-21T00:53:34.765Z,734.08
2015-10-21T00:53:47.968Z,734.05
2015-10-21T00:54:01.171Z,734.01
2015-10-21T00:54:14.390Z,734.09
2015-10-21T00:54:27.626Z,734.07
2015-10-21T00:54:40.829Z,734.03
2015-10-21T00:54:54.032Z,734.01
2015-10-21T00:55:07.236Z,734.02
2015-10-21T00:55:20.470Z,734.01
2015-10-21T00:55:33.676Z,734.01
2015-10-21T00:55:46.879Z,734.05
2015-10-21T00:56:00.082Z,734.07
2015-10-21T00:56:13.301Z,734.06
2015-10-21T00:56:26.523Z,734.04
2015-10-21T00:56:39.570Z,734.04
2015-10-21T00:56:52.757Z,734.1
2015-10-21T00:57:05.976Z,734.05
2015-10-21T00:57:19.226Z,734.1
2015-10-21T00:57:32.447Z,734.11
2015-10-21T00:57:45.650Z,734.04
2015-10-21T00:57:58.869Z,734.06
2015-10-21T00:58:12.087Z,734.06
2015-10-21T00:58:25.293Z,734.07
2015-10-21T00:58:38.497Z,734.07
2015-10-21T00:58:51.700Z,734.09
2015-10-21T00:59:04.918Z,734.06
2015-10-21T00:59:18.122Z,734.03
2015-10-21T00:59:31.328Z,734.04
2015-10-21T00:59:44.531Z,734.06
2015-10-21T00:59:57.750Z,734.06
2015-10-21T01:00:10.984Z,734.05
2015-10-21T01:00:24.187Z,734.05
2015-10-21T01:00:37.393Z,734.05
2015-10-21T01:00:50.596Z,734.05
2015-10-21T01:01:03.815Z,734.09
2015-10-21T01:01:17.018Z,734.07
2015-10-21T01:01:30.224Z,734.02
2015-10-21T01:01:43.427Z,734.07
2015-10-21T01:01:56.646Z,734.08
2015-10-21T01:02:09.849Z,734.11
2015-10-21T01:02:23.052Z,734.09
2015-10-21T01:02:36.258Z,734.06
2015-10-21T01:02:49.476Z,734.1
2015-10-21T01:03:02.695Z,734.07
2015-10-21T01:03:15.898Z,734.05
2015-10-21T01:03:29.104Z,734.07
2015-10-21T01:03:42.323Z,734
2015-10-21T01:03:55.542Z,734.03
2015-10-21T01:04:08.761Z,733.99
2015-10-21T01:04:21.964Z,734.09
2015-10-21T01:04:35.170Z,734.04
2015-10-21T01:04:48.404Z,734
2015-10-21T01:05:01.607Z,733.97
2015-10-21T01:05:14.810Z,733.98
2015-10-21T01:05:28.014Z,734.02
2015-10-21T01:05:41.250Z,734
2015-10-21T01:05:54.453Z,734.06
2015-10-21T01:06:07.500Z,733.98
2015-10-21T01:06:20.703Z,734.04
2015-10-21T01:06:33.940Z,734
2015-10-21T01:06:47.144Z,733.98
2015-10-21T01:07:00.331Z,734
2015-10-21T01:07:13.534Z,734
2015-10-21T01:07:26.753Z,734.01
2015-10-21T01:07:39.975Z,733.99
2015-10-21T01:07:53.178Z,733.91
2015-10-21T01:08:06.365Z,733.98
2015-10-21T01:08:19.584Z,734
2015-10-21T01:08:32.820Z,733.98
2015-10-21T01:08:46.008Z,733.98
2015-10-21T01:08:59.211Z,733.94
2015-10-21T01:09:12.414Z,733.97
2015-10-21T01:09:25.649Z,733.96
2015-10-21T01:09:38.855Z,733.97
2015-10-21T01:09:52.042Z,733.95
2015-10-21T01:10:05.230Z,733.94
2015-10-21T01:10:18.433Z,733.98
2015-10-21T01:10:31.605Z,734.04
2015-10-21T01:10:44.795Z,734.01
2015-10-21T01:10:57.998Z,734
2015-10-21T01:11:11.217Z,733.98
2015-10-21T01:11:24.436Z,734.04
2015-10-21T01:11:37.642Z,733.92
2015-10-21T01:11:50.845Z,734.02
2015-10-21T01:12:04.048Z,734.04
2015-10-21T01:12:17.283Z,733.96
2015-10-21T01:12:30.486Z,734.04
2015-10-21T01:12:43.706Z,734.02
2015-10-21T01:12:56.894Z,734
2015-10-21T01:13:10.144Z,733.97
2015-10-21T01:13:23.347Z,733.91
2015-10-21T01:13:36.397Z,733.99
2015-10-21T01:13:49.600Z,734
2015-10-21T01:14:02.819Z,734
2015-10-21T01:14:16.006Z,734
2015-10-21T01:14:29.209Z,733.99
2015-10-21T01:14:42.416Z,734.03
2015-10-21T01:14:55.619Z,734
2015-10-21T01:15:08.837Z,734.04
2015-10-21T01:15:22.041Z,734.04
2015-10-21T01:15:35.228Z,733.94
2015-10-21T01:15:48.450Z,734.03
2015-10-21T01:16:01.669Z,733.98
2015-10-21T01:16:14.887Z,733.95
2015-10-21T01:16:28.090Z,733.97
2015-10-21T01:16:41.124Z,734.01
2015-10-21T01:16:54.358Z,733.96
2015-10-21T01:17:07.561Z,733.91
2015-10-21T01:17:20.764Z,733.93
2015-10-21T01:17:33.983Z,733.97
2015-10-21T01:17:47.205Z,733.93
2015-10-21T01:18:00.424Z,733.91
2015-10-21T01:18:13.627Z,733.97
2015-10-21T01:18:26.814Z,734
2015-10-21T01:18:40.036Z,734
2015-10-21T01:18:53.255Z,733.99
2015-10-21T01:19:06.458Z,734
2015-10-21T01:19:19.645Z,733.95
2015-10-21T01:19:32.864Z,733.94
2015-10-21T01:19:46.085Z,733.97
2015-10-21T01:19:59.288Z,733.98
2015-10-21T01:20:12.507Z,734.05
2015-10-21T01:20:25.725Z,734.04
2015-10-21T01:20:38.944Z,734.04
2015-10-21T01:20:52.166Z,734.04
2015-10-21T01:21:05.353Z,734.01
2015-10-21T01:21:18.557Z,734.02
2015-10-21T01:21:31.775Z,733.95
2015-10-21T01:21:44.997Z,734.03
2015-10-21T01:21:58.200Z,734.06
2015-10-21T01:22:11.403Z,734.06
2015-10-21T01:22:24.622Z,734.04
2015-10-21T01:22:37.856Z,734.06
2015-10-21T01:22:51.063Z,734.08
2015-10-21T01:23:04.250Z,734.03
2015-10-21T01:23:17.453Z,734.03
2015-10-21T01:23:30.688Z,734.02
2015-10-21T01:23:43.893Z,734.01
2015-10-21T01:23:57.096Z,734
2015-10-21T01:24:10.283Z,734
2015-10-21T01:24:23.502Z,734.03
2015-10-21T01:24:36.705Z,733.97
2015-10-21T01:24:49.911Z,734.02
2015-10-21T01:25:03.130Z,734.07
2015-10-21T01:25:16.349Z,734.05
2015-10-21T01:25:29.568Z,733.96
2015-10-21T01:25:42.771Z,733.99
2015-10-21T01:25:55.977Z,733.97
2015-10-21T01:26:09.196Z,734.02
2015-10-21T01:26:22.539Z,734.01
2015-10-21T01:26:35.742Z,733.97
2015-10-21T01:26:48.949Z,733.97
2015-10-21T01:27:02.167Z,733.95
2015-10-21T01:27:15.386Z,733.99
2015-10-21T01:27:28.574Z,734.01
2015-10-21T01:27:41.777Z,733.97
2015-10-21T01:27:54.983Z,733.98
2015-10-21T01:28:08.202Z,733.95
2015-10-21T01:28:21.405Z,733.94
2015-10-21T01:28:34.608Z,733.98
2015-10-21T01:28:47.813Z,733.95
2015-10-21T01:29:01.016Z,734.02
2015-10-21T01:29:14.235Z,733.99
2015-10-21T01:29:27.438Z,733.94
2015-10-21T01:29:40.500Z,733.99
2015-10-21T01:29:53.706Z,733.94
2015-10-21T01:30:06.924Z,733.97
2015-10-21T01:30:20.112Z,733.92
2015-10-21T01:30:33.331Z,733.94
2015-10-21T01:30:46.534Z,733.93
2015-10-21T01:30:59.771Z,733.92
2015-10-21T01:31:12.959Z,733.92
2015-10-21T01:31:26.162Z,733.95
2015-10-21T01:31:39.365Z,733.97
2015-10-21T01:31:52.587Z,733.97
2015-10-21T01:32:05.790Z,733.94
2015-10-21T01:32:18.993Z,733.92
2015-10-21T01:32:32.212Z,733.96
2015-10-21T01:32:45.430Z,733.95
2015-10-21T01:32:58.651Z,733.97
2015-10-21T01:33:11.854Z,733.96
2015-10-21T01:33:25.057Z,733.97
2015-10-21T01:33:38.260Z,733.93
2015-10-21T01:33:51.499Z,733.95
2015-10-21T01:34:04.702Z,733.96
2015-10-21T01:34:17.905Z,733.95
2015-10-21T01:34:31.108Z,733.99
2015-10-21T01:34:44.327Z,733.94
2015-10-21T01:34:57.532Z,733.93
2015-10-21T01:35:10.735Z,733.97
2015-10-21T01:35:23.938Z,733.95
2015-10-21T01:35:37.157Z,733.94
2015-10-21T01:35:50.376Z,733.95
2015-10-21T01:36:03.582Z,733.93
2015-10-21T01:36:16.785Z,733.95
2015-10-21T01:36:29.988Z,733.97
2015-10-21T01:36:43.207Z,733.96
2015-10-21T01:36:56.413Z,733.94
2015-10-21T01:37:09.616Z,733.95
2015-10-21T01:37:22.819Z,733.91
2015-10-21T01:37:36.069Z,733.92
2015-10-21T01:37:49.272Z,733.92
2015-10-21T01:38:02.479Z,733.92
2015-10-21T01:38:15.682Z,733.94
2015-10-21T01:38:28.885Z,733.93
2015-10-21T01:38:42.104Z,733.91
2015-10-21T01:38:55.293Z,733.92
2015-10-21T01:39:08.496Z,733.9
2015-10-21T01:39:21.715Z,733.92
2015-10-21T01:39:34.934Z,733.88
2015-10-21T01:39:48.137Z,733.88
2015-10-21T01:40:01.359Z,733.87
2015-10-21T01:40:14.562Z,733.9
2015-10-21T01:40:27.796Z,733.87
2015-10-21T01:40:40.999Z,733.87
2015-10-21T01:40:54.202Z,733.89
2015-10-21T01:41:07.408Z,733.87
2015-10-21T01:41:20.627Z,733.87
2015-10-21T01:41:33.830Z,733.89
2015-10-21T01:41:47.033Z,733.87
2015-10-21T01:42:00.254Z,733.91
2015-10-21T01:42:13.473Z,733.89
2015-10-21T01:42:26.692Z,733.91
2015-10-21T01:42:39.910Z,733.9
2015-10-21T01:42:53.098Z,733.93
2015-10-21T01:43:06.320Z,733.94
2015-10-21T01:43:19.538Z,733.91
2015-10-21T01:43:32.742Z,733.95
2015-10-21T01:43:45.929Z,733.91
2015-10-21T01:43:59.135Z,733.93
2015-10-21T01:44:12.370Z,733.91
2015-10-21T01:44:25.573Z,733.94
2015-10-21T01:44:38.776Z,733.95
2015-10-21T01:44:51.979Z,733.95
2015-10-21T01:45:05.231Z,733.94
2015-10-21T01:45:18.450Z,733.95
2015-10-21T01:45:31.653Z,733.94
2015-10-21T01:45:44.856Z,733.95
2015-10-21T01:45:58.078Z,733.95
2015-10-21T01:46:11.296Z,733.93
2015-10-21T01:46:24.500Z,733.95
2015-10-21T01:46:37.687Z,733.93
2015-10-21T01:46:50.890Z,733.9
2015-10-21T01:47:04.096Z,733.93
2015-10-21T01:47:17.299Z,733.9
2015-10-21T01:47:30.487Z,733.9
2015-10-21T01:47:43.534Z,733.92
2015-10-21T01:47:56.740Z,733.96
2015-10-21T01:48:09.943Z,733.91
2015-10-21T01:48:23.131Z,733.91
2015-10-21T01:48:36.318Z,733.93
2015-10-21T01:48:49.537Z,733.9
2015-10-21T01:49:02.758Z,733.91
2015-10-21T01:49:15.945Z,733.91
2015-10-21T01:49:29.164Z,733.92
2015-10-21T01:49:42.383Z,733.9
2015-10-21T01:49:55.601Z,733.93
2015-10-21T01:50:08.806Z,733.9
2015-10-21T01:50:22.010Z,733.89
2015-10-21T01:50:35.213Z,733.9
2015-10-21T01:50:48.447Z,733.87
2015-10-21T01:51:01.653Z,733.86
2015-10-21T01:51:14.856Z,733.89
2015-10-21T01:51:28.059Z,733.91
2015-10-21T01:51:41.278Z,733.87
2015-10-21T01:51:54.497Z,733.86
2015-10-21T01:52:07.687Z,733.9
2015-10-21T01:52:20.891Z,733.89
2015-10-21T01:52:34.109Z,733.92
2015-10-21T01:52:47.344Z,733.9
2015-10-21T01:53:00.549Z,733.91
2015-10-21T01:53:13.580Z,733.9
2015-10-21T01:53:26.783Z,733.95
2015-10-21T01:53:39.861Z,733.89
2015-10-21T01:53:53.080Z,733.88
2015-10-21T01:54:06.286Z,733.94
2015-10-21T01:54:19.505Z,733.96
2015-10-21T01:54:32.724Z,733.92
2015-10-21T01:54:45.942Z,733.94
2015-10-21T01:54:59.149Z,733.93
2015-10-21T01:55:12.352Z,733.91
2015-10-21T01:55:25.570Z,733.93
2015-10-21T01:55:38.774Z,733.88
2015-10-21T01:55:51.977Z,733.94
2015-10-21T01:56:05.183Z,733.9
2015-10-21T01:56:18.417Z,733.94
2015-10-21T01:56:31.620Z,733.92
2015-10-21T01:56:44.823Z,733.96
2015-10-21T01:56:58.027Z,733.93
2015-10-21T01:57:11.248Z,733.94
2015-10-21T01:57:24.467Z,733.97
2015-10-21T01:57:37.686Z,733.98
2015-10-21T01:57:50.889Z,733.95
2015-10-21T01:58:04.094Z,734.01
2015-10-21T01:58:17.328Z,734.01
2015-10-21T01:58:30.547Z,734.01
2015-10-21T01:58:43.750Z,734
2015-10-21T01:58:56.953Z,733.96
2015-10-21T01:59:10.160Z,733.95
2015-10-21T01:59:23.378Z,734.01
2015-10-21T01:59:36.581Z,733.98
2015-10-21T01:59:49.785Z,733.99
2015-10-21T02:00:02.991Z,733.95
2015-10-21T02:00:16.209Z,734.01
2015-10-21T02:00:29.413Z,733.94
2015-10-21T02:00:42.616Z,733.99
2015-10-21T02:00:55.803Z,733.98
2015-10-21T02:01:09.040Z,733.97
2015-10-21T02:01:22.243Z,733.93
2015-10-21T02:01:35.446Z,733.94
2015-10-21T02:01:48.649Z,733.94
2015-10-21T02:02:01.852Z,733.95
2015-10-21T02:02:15.075Z,733.95
2015-10-21T02:02:28.137Z,733.97
2015-10-21T02:02:41.340Z,733.96
2015-10-21T02:02:54.544Z,733.94
2015-10-21T02:03:07.749Z,733.93
2015-10-21T02:03:20.952Z,733.93
2015-10-21T02:03:34.155Z,733.92
2015-10-21T02:03:47.358Z,733.93
2015-10-21T02:04:00.577Z,733.96
2015-10-21T02:04:13.783Z,733.96
2015-10-21T02:04:26.986Z,733.95
2015-10-21T02:04:40.189Z,733.96
2015-10-21T02:04:53.408Z,733.98
2015-10-21T02:05:06.613Z,733.91
2015-10-21T02:05:19.801Z,733.9
2015-10-21T02:05:33.019Z,733.9
2015-10-21T02:05:46.238Z,733.88
2015-10-21T02:05:59.457Z,733.93
2015-10-21T02:06:12.647Z,733.91
2015-10-21T02:06:25.850Z,733.93
2015-10-21T02:06:39.069Z,733.89
2015-10-21T02:06:52.288Z,733.9
2015-10-21T02:07:05.491Z,733.87
2015-10-21T02:07:18.681Z,733.9
2015-10-21T02:07:31.899Z,733.88
2015-10-21T02:07:45.134Z,733.91
2015-10-21T02:07:58.337Z,733.91
2015-10-21T02:08:11.544Z,733.88
2015-10-21T02:08:24.747Z,733.9
2015-10-21T02:08:37.981Z,733.93
2015-10-21T02:08:51.185Z,733.93
2015-10-21T02:09:04.388Z,733.96
2015-10-21T02:09:17.578Z,733.92
2015-10-21T02:09:30.813Z,733.94
2015-10-21T02:09:44.016Z,733.91
2015-10-21T02:09:57.203Z,733.94
2015-10-21T02:10:10.408Z,733.93
2015-10-21T02:10:23.627Z,733.89
2015-10-21T02:10:36.846Z,733.9
2015-10-21T02:10:50.033Z,733.93
2015-10-21T02:11:03.236Z,733.91
2015-10-21T02:11:16.442Z,733.88
2015-10-21T02:11:29.676Z,733.91
2015-10-21T02:11:42.879Z,733.89
2015-10-21T02:11:56.082Z,733.9
2015-10-21T02:12:09.301Z,733.91
2015-10-21T02:12:22.524Z,733.93
2015-10-21T02:12:35.727Z,733.9
2015-10-21T02:12:48.914Z,733.93
2015-10-21T02:13:02.102Z,733.9
2015-10-21T02:13:15.323Z,733.9
2015-10-21T02:13:28.557Z,733.9
2015-10-21T02:13:41.760Z,733.93
2015-10-21T02:13:54.963Z,733.93
2015-10-21T02:14:08.166Z,733.9
2015-10-21T02:14:21.388Z,733.9
2015-10-21T02:14:34.591Z,733.91
2015-10-21T02:14:47.794Z,733.97
2015-10-21T02:15:00.997Z,733.92
2015-10-21T02:15:14.249Z,733.93
2015-10-21T02:15:27.453Z,733.94
2015-10-21T02:15:40.656Z,733.88
2015-10-21T02:15:53.859Z,733.88
2015-10-21T02:16:07.078Z,733.92
2015-10-21T02:16:20.299Z,733.88
2015-10-21T02:16:33.502Z,733.85
2015-10-21T02:16:46.690Z,733.89
2015-10-21T02:16:59.909Z,733.86
2015-10-21T02:17:13.127Z,733.93
2015-10-21T02:17:26.334Z,733.9
2015-10-21T02:17:39.521Z,733.91
2015-10-21T02:17:52.740Z,733.9
2015-10-21T02:18:05.959Z,733.95
2015-10-21T02:18:19.165Z,733.94
2015-10-21T02:18:32.352Z,733.93
2015-10-21T02:18:45.571Z,733.89
2015-10-21T02:18:58.790Z,733.88
2015-10-21T02:19:11.993Z,733.87
2015-10-21T02:19:25.198Z,733.91
2015-10-21T02:19:38.401Z,733.89
2015-10-21T02:19:51.620Z,733.88
2015-10-21T02:20:04.807Z,733.87
2015-10-21T02:20:18.029Z,733.92
2015-10-21T02:20:31.217Z,733.92
2015-10-21T02:20:44.435Z,733.89
2015-10-21T02:20:57.654Z,733.93
2015-10-21T02:21:10.873Z,733.92
2015-10-21T02:21:24.063Z,733.96
2015-10-21T02:21:37.282Z,733.94
2015-10-21T02:21:50.516Z,733.93
2015-10-21T02:22:03.720Z,733.88
2015-10-21T02:22:16.907Z,733.91
2015-10-21T02:22:30.113Z,733.88
2015-10-21T02:22:43.348Z,733.92
2015-10-21T02:22:56.551Z,733.88
2015-10-21T02:23:09.754Z,733.9
2015-10-21T02:23:22.943Z,733.88
2015-10-21T02:23:36.162Z,733.87
2015-10-21T02:23:49.381Z,733.9
2015-10-21T02:24:02.568Z,733.88
2015-10-21T02:24:15.756Z,733.91
2015-10-21T02:24:28.962Z,733.89
2015-10-21T02:24:42.165Z,733.91
2015-10-21T02:24:55.353Z,733.9
2015-10-21T02:25:08.556Z,733.9
2015-10-21T02:25:21.762Z,733.87
2015-10-21T02:25:34.996Z,733.9
2015-10-21T02:25:48.199Z,733.85
2015-10-21T02:26:01.402Z,733.87
2015-10-21T02:26:14.606Z,733.85
2015-10-21T02:26:27.827Z,733.88
2015-10-21T02:26:41.030Z,733.85
2015-10-21T02:26:54.218Z,733.86
2015-10-21T02:27:07.421Z,733.83
2015-10-21T02:27:20.640Z,733.89
2015-10-21T02:27:33.862Z,733.89
2015-10-21T02:27:47.049Z,733.9
2015-10-21T02:28:00.252Z,733.9
2015-10-21T02:28:13.471Z,733.9
2015-10-21T02:28:26.692Z,733.88
2015-10-21T02:28:39.879Z,733.89
2015-10-21T02:28:53.082Z,733.89
2015-10-21T02:29:06.285Z,733.9
2015-10-21T02:29:19.520Z,733.9
2015-10-21T02:29:32.725Z,733.84
2015-10-21T02:29:45.928Z,733.87
2015-10-21T02:29:59.131Z,733.84
2015-10-21T02:30:12.366Z,733.85
2015-10-21T02:30:25.573Z,733.86
2015-10-21T02:30:38.776Z,733.83
2015-10-21T02:30:51.979Z,733.87
2015-10-21T02:31:05.198Z,733.87
2015-10-21T02:31:18.401Z,733.85
2015-10-21T02:31:31.607Z,733.88
2015-10-21T02:31:44.810Z,733.82
2015-10-21T02:31:58.013Z,733.87
2015-10-21T02:32:11.232Z,733.87
2015-10-21T02:32:24.435Z,733.84
2015-10-21T02:32:37.640Z,733.88
2015-10-21T02:32:50.843Z,733.89
2015-10-21T02:33:04.078Z,733.92
2015-10-21T02:33:17.296Z,733.86
2015-10-21T02:33:30.487Z,733.91
2015-10-21T02:33:43.690Z,733.88
2015-10-21T02:33:56.909Z,733.91
2015-10-21T02:34:10.112Z,733.92
2015-10-21T02:34:23.315Z,733.87
2015-10-21T02:34:36.536Z,733.86
2015-10-21T02:34:49.739Z,733.87
2015-10-21T02:35:02.989Z,733.88
2015-10-21T02:35:16.192Z,733.87
2015-10-21T02:35:29.398Z,733.89
2015-10-21T02:35:42.617Z,733.87
2015-10-21T02:35:55.836Z,733.89
2015-10-21T02:36:09.023Z,733.89
2015-10-21T02:36:22.242Z,733.9
2015-10-21T02:36:35.448Z,733.88
2015-10-21T02:36:48.667Z,733.87
2015-10-21T02:37:01.854Z,733.89
2015-10-21T02:37:15.057Z,733.89
2015-10-21T02:37:28.245Z,733.94
2015-10-21T02:37:41.467Z,733.89
2015-10-21T02:37:54.670Z,733.86
2015-10-21T02:38:07.904Z,733.89
2015-10-21T02:38:21.107Z,733.9
2015-10-21T02:38:34.312Z,733.92
2015-10-21T02:38:47.547Z,733.9
2015-10-21T02:39:00.750Z,733.88
2015-10-21T02:39:13.953Z,733.93
2015-10-21T02:39:27.156Z,733.9
2015-10-21T02:39:40.378Z,733.89
2015-10-21T02:39:53.597Z,733.92
2015-10-21T02:40:06.800Z,733.92
2015-10-21T02:40:19.987Z,733.87
2015-10-21T02:40:33.209Z,733.88
2015-10-21T02:40:46.412Z,733.91
2015-10-21T02:40:59.631Z,733.86
2015-10-21T02:41:12.084Z,733.9
2015-10-21T02:41:25.287Z,733.88
2015-10-21T02:41:38.524Z,733.88
2015-10-21T02:41:51.727Z,733.86
2015-10-21T02:42:04.930Z,733.86
2015-10-21T02:42:18.133Z,733.87
2015-10-21T02:42:31.352Z,733.85
2015-10-21T02:42:44.573Z,733.85
2015-10-21T02:42:57.792Z,733.85
2015-10-21T02:43:10.980Z,733.83
2015-10-21T02:43:24.214Z,733.81
2015-10-21T02:43:37.419Z,733.79
2015-10-21T02:43:50.622Z,733.81
2015-10-21T02:44:03.825Z,733.82
2015-10-21T02:44:17.044Z,733.83
2015-10-21T02:44:30.263Z,733.84
2015-10-21T02:44:43.453Z,733.82
2015-10-21T02:44:56.657Z,733.78
2015-10-21T02:45:09.875Z,733.78
2015-10-21T02:45:23.094Z,733.82
2015-10-21T02:45:36.301Z,733.81
2015-10-21T02:45:49.504Z,733.8